Time;durP1;ratioP1;P1;durP2;ratioP2;P2;SDS_P1;SDS_P2;PMS_P1;PMS_P2;Temp;Humidity;BMP_temperature;BMP_pressure;BME280_temperature;BME280_humidity;BME280_pressure;Samples;Min_cycle;Max_cycle;Signal;HPM_P1;HPM_P2
2023/03/22 00:02:20;;;;;;;137.48;51.13;;;;;;;23.62;30.21;102731.91;21058494;28;20052;-69
2023/03/22 00:12:22;;;;;;;126.18;49.13;;;;;;;23.66;30.61;102758.28;21075322;28;20050;-69
2023/03/22 00:22:24;;;;;;;112.65;44.70;;;;;;;23.70;30.61;102751.06;21073275;28;20548;-68
2023/03/22 00:32:31;;;;;;;110.18;43.83;;;;;;;23.75;30.80;102753.94;21064298;28;20040;-69
2023/03/22 00:42:36;;;;;;;102.50;41.95;;;;;;;23.65;30.69;102742.59;21076285;28;20040;-70
2023/03/22 00:52:37;;;;;;;103.30;41.22;;;;;;;23.76;30.58;102772.41;21048246;28;20403;-71
2023/03/22 01:02:41;;;;;;;90.30;39.15;;;;;;;23.74;30.19;102769.03;21045237;28;20098;-72
2023/03/22 01:12:42;;;;;;;92.55;36.88;;;;;;;23.76;30.54;102778.00;21070412;28;20156;-69
2023/03/22 01:22:44;;;;;;;87.68;35.10;;;;;;;23.73;30.75;102772.94;21032409;28;20078;-70
2023/03/22 01:32:45;;;;;;;88.38;34.08;;;;;;;23.87;31.13;102786.53;21073933;28;20040;-70
2023/03/22 01:42:54;;;;;;;83.82;33.38;;;;;;;23.90;31.53;102781.28;21068925;28;20047;-71
2023/03/22 01:52:56;;;;;;;70.85;29.30;;;;;;;24.17;30.33;102778.56;21065352;28;20035;-73
2023/03/22 02:02:58;;;;;;;69.82;27.23;;;;;;;24.30;30.09;102783.78;21081218;28;20048;-72
2023/03/22 02:13:05;;;;;;;61.67;26.95;;;;;;;24.40;30.21;102780.31;21066903;28;20390;-73
2023/03/22 02:23:24;;;;;;;56.17;23.75;;;;;;;24.46;29.79;102782.06;21080325;28;20044;-71
2023/03/22 02:33:40;;;;;;;47.10;21.15;;;;;;;24.60;29.97;102793.69;21074136;28;20031;-69
2023/03/22 02:44:05;;;;;;;45.13;22.00;;;;;;;24.69;29.90;102794.06;21044376;28;20497;-70
2023/03/22 02:54:25;;;;;;;52.03;22.05;;;;;;;24.24;30.26;102790.44;21081211;28;20044;-70
2023/03/22 03:04:38;;;;;;;40.85;20.83;;;;;;;24.15;30.80;102802.34;21067497;28;20051;-69
2023/03/22 03:14:40;;;;;;;50.78;21.23;;;;;;;23.99;30.78;102782.53;21078543;28;20093;-68
2023/03/22 03:25:02;;;;;;;46.20;20.17;;;;;;;23.96;31.10;102807.34;21079880;28;20130;-69
2023/03/22 03:35:21;;;;;;;43.22;18.70;;;;;;;23.98;30.52;102805.16;21079986;28;20153;-69
2023/03/22 03:45:22;;;;;;;;;;;;;;;23.95;30.85;102814.03;21075732;28;20471;-69
2023/03/22 03:55:25;;;;;;;44.78;18.50;;;;;;;24.01;30.40;102819.47;21073048;28;19921;-69
2023/03/22 04:05:26;;;;;;;40.90;16.65;;;;;;;23.97;30.51;102809.06;21076630;28;20448;-69
2023/03/22 04:15:28;;;;;;;35.55;14.85;;;;;;;24.05;29.97;102808.59;21082235;28;20036;-69
2023/03/22 04:25:32;;;;;;;39.47;16.45;;;;;;;23.99;29.98;102801.25;21082580;28;20091;-68
2023/03/22 04:35:34;;;;;;;34.42;14.18;;;;;;;23.60;29.81;102728.53;21042133;28;20040;-69
2023/03/22 04:45:35;;;;;;;35.80;12.95;;;;;;;24.05;29.99;102797.41;21076699;28;20491;-69
2023/03/22 04:55:36;;;;;;;24.25;12.63;;;;;;;23.91;29.78;102780.16;21049290;28;20403;-68
2023/03/22 05:05:38;;;;;;;26.60;13.18;;;;;;;23.87;29.40;102781.81;21068977;28;20041;-68
2023/03/22 05:15:40;;;;;;;24.30;11.55;;;;;;;24.02;29.49;102809.13;21061632;28;20069;-68
2023/03/22 05:25:43;;;;;;;22.75;11.02;;;;;;;24.00;29.22;102805.72;21054689;28;20036;-68
2023/03/22 05:35:45;;;;;;;26.98;11.15;;;;;;;23.84;29.10;102794.34;21049515;28;20090;-68
2023/03/22 05:45:46;;;;;;;22.25;11.13;;;;;;;23.95;29.08;102805.66;21007580;28;20052;-68
2023/03/22 05:55:48;;;;;;;21.40;10.70;;;;;;;23.90;29.31;102805.59;21001317;28;20043;-68
2023/03/22 06:05:49;;;;;;;16.80;9.27;;;;;;;23.95;29.16;102816.84;20991993;28;20036;-68
2023/03/22 06:15:54;;;;;;;19.52;9.40;;;;;;;23.82;28.99;102802.16;21011877;28;20109;-68
2023/03/22 06:25:55;;;;;;;16.83;8.38;;;;;;;23.91;28.80;102826.84;21073608;28;20130;-68
2023/03/22 06:35:58;;;;;;;18.58;8.13;;;;;;;23.81;28.83;102814.41;21067596;28;20070;-68
2023/03/22 06:45:59;;;;;;;12.65;6.95;;;;;;;23.84;28.21;102819.50;21054710;28;20090;-69
2023/03/22 06:56:01;;;;;;;14.90;7.82;;;;;;;23.71;29.13;102796.63;21033500;28;20067;-68
2023/03/22 07:06:05;;;;;;;10.95;6.53;;;;;;;23.73;28.71;102798.09;21063423;28;20436;-68
2023/03/22 07:16:07;;;;;;;12.35;5.68;;;;;;;23.67;28.27;102804.69;21064461;28;20438;-69
2023/03/22 07:26:08;;;;;;;10.68;5.18;;;;;;;23.58;28.21;102781.03;21047230;28;20059;-69
2023/03/22 07:36:10;;;;;;;7.05;4.57;;;;;;;23.60;28.12;102767.66;21028896;28;20036;-69
2023/03/22 07:46:12;;;;;;;8.68;4.63;;;;;;;23.52;28.18;102748.50;21085087;28;20073;-68
2023/03/22 07:56:13;;;;;;;7.85;4.65;;;;;;;23.62;28.12;102754.25;21080974;28;20059;-68
2023/03/22 08:06:15;;;;;;;7.78;3.95;;;;;;;23.55;28.46;102742.44;21084546;28;20051;-68
2023/03/22 08:16:22;;;;;;;7.78;4.38;;;;;;;23.67;28.15;102762.75;21077840;28;20073;-68
2023/03/22 08:26:23;;;;;;;4.88;3.63;;;;;;;23.62;28.35;102757.06;21053739;28;20035;-69
2023/03/22 08:36:25;;;;;;;5.53;3.33;;;;;;;23.68;28.17;102761.66;21081730;28;20040;-69
2023/03/22 08:46:26;;;;;;;6.35;3.58;;;;;;;23.65;28.38;102759.38;21066474;28;20052;-68
2023/03/22 08:56:27;;;;;;;5.80;3.47;;;;;;;23.64;28.24;102754.91;21083818;28;20040;-68
2023/03/22 09:06:29;;;;;;;5.78;3.47;;;;;;;23.39;28.16;102709.75;21044296;28;20373;-68
2023/03/22 09:16:34;;;;;;;4.97;3.08;;;;;;;23.69;28.45;102768.94;20996384;28;20040;-69
2023/03/22 09:26:35;;;;;;;5.05;3.30;;;;;;;23.50;28.50;102740.41;21040687;28;20479;-69
2023/03/22 09:36:37;;;;;;;5.55;3.63;;;;;;;23.68;28.12;102763.59;21077620;28;20090;-67
2023/03/22 09:46:43;;;;;;;5.95;3.13;;;;;;;23.67;28.31;102768.34;21034269;28;20081;-68
2023/03/22 09:57:06;;;;;;;4.95;3.08;;;;;;;23.65;28.33;102770.56;21080856;28;20101;-69
2023/03/22 10:07:29;;;;;;;4.13;2.45;;;;;;;23.62;28.32;102778.56;21093522;28;20089;-68
2023/03/22 10:17:35;;;;;;;4.35;2.50;;;;;;;23.55;28.41;102764.78;21088999;28;20046;-69
2023/03/22 10:27:36;;;;;;;4.63;2.67;;;;;;;23.40;28.31;102739.38;21092103;28;20044;-69
2023/03/22 10:37:39;;;;;;;4.00;2.75;;;;;;;23.30;28.54;102723.28;21083282;28;20383;-69
2023/03/22 10:48:04;;;;;;;4.22;2.70;;;;;;;23.60;28.46;102781.63;21079534;28;20052;-68
2023/03/22 10:58:17;;;;;;;4.97;3.33;;;;;;;23.63;28.21;102785.84;21087431;28;20040;-68
2023/03/22 11:08:19;;;;;;;4.70;2.63;;;;;;;23.45;28.35;102770.19;21087079;28;20136;-68
2023/03/22 11:18:24;;;;;;;5.30;2.63;;;;;;;23.61;27.92;102797.28;21081658;28;20035;-69
2023/03/22 11:28:35;;;;;;;6.57;2.53;;;;;;;23.51;28.33;102767.22;21081548;28;20097;-69
2023/03/22 11:38:39;;;;;;;4.20;2.55;;;;;;;23.56;31.06;102778.50;21083911;28;20487;-69
2023/03/22 11:48:46;;;;;;;7.43;3.03;;;;;;;23.44;30.81;102752.56;21059723;28;20075;-69
2023/03/22 11:58:58;;;;;;;21.83;3.85;;;;;;;23.66;29.94;102788.16;21063387;28;20036;-71
2023/03/22 12:09:18;;;;;;;13.07;3.38;;;;;;;23.26;29.50;102700.59;21063761;28;20397;-70
2023/03/22 12:20:15;;;;;;;6.57;2.42;;;;;;;23.57;29.24;102757.81;21065501;28;20036;-70
2023/03/22 12:30:27;;;;;;;6.78;3.03;;;;;;;23.34;29.42;102764.44;20973175;28;20051;-70
2023/03/22 12:40:39;;;;;;;17.23;2.55;;;;;;;23.34;29.08;102750.47;21065031;28;20028;-70
2023/03/22 12:50:54;;;;;;;11.13;2.83;;;;;;;23.58;29.59;102750.28;20995673;28;20094;-70
2023/03/22 13:01:11;;;;;;;6.38;2.60;;;;;;;23.67;28.85;102779.53;20995615;28;20024;-69
2023/03/22 13:11:22;;;;;;;4.05;2.05;;;;;;;23.66;29.58;102766.66;20995186;28;20037;-70
2023/03/22 13:21:28;;;;;;;10.98;2.70;;;;;;;23.62;29.69;102753.41;21046654;28;20043;-70
2023/03/22 13:31:50;;;;;;;4.95;1.77;;;;;;;23.44;29.43;102741.41;21077111;28;20036;-70
2023/03/22 13:42:21;;;;;;;2.47;1.80;;;;;;;23.38;29.57;102741.59;21077205;28;20044;-70
2023/03/22 13:52:28;;;;;;;2.92;1.65;;;;;;;23.23;29.29;102701.13;21076711;28;20058;-70
2023/03/22 14:02:36;;;;;;;2.30;1.65;;;;;;;23.50;29.26;102719.97;21076110;28;20161;-69
2023/03/22 14:13:02;;;;;;;4.00;1.90;;;;;;;23.52;29.75;102687.03;21076485;28;20043;-70
2023/03/22 14:23:33;;;;;;;2.55;1.65;;;;;;;23.52;29.37;102709.41;21074060;28;20043;-69
2023/03/22 14:33:42;;;;;;;2.95;2.00;;;;;;;23.63;29.13;102700.06;21071468;28;20044;-70
2023/03/22 14:43:50;;;;;;;2.33;1.50;;;;;;;23.56;29.11;102688.22;21077893;28;20445;-69
2023/03/22 14:53:51;;;;;;;3.97;1.83;;;;;;;23.72;28.92;102698.53;21072296;28;20055;-70
2023/03/22 15:04:04;;;;;;;2.17;1.35;;;;;;;23.79;29.09;102710.38;21060609;28;20395;-70
2023/03/22 15:14:08;;;;;;;2.67;1.67;;;;;;;23.87;29.20;102708.22;21088376;28;20094;-71
2023/03/22 15:24:30;;;;;;;2.55;1.48;;;;;;;23.86;29.01;102687.81;21088022;28;20094;-71
2023/03/22 15:34:32;;;;;;;2.53;1.60;;;;;;;23.93;29.11;102665.28;21082716;28;20032;-71
2023/03/22 15:44:37;;;;;;;4.00;1.40;;;;;;;23.97;29.50;102652.47;21085476;28;20089;-70
2023/03/22 15:55:06;;;;;;;2.63;1.48;;;;;;;23.70;29.33;102607.69;21085171;28;20040;-70
2023/03/22 16:05:11;;;;;;;3.28;1.60;;;;;;;23.84;29.52;102601.44;21084754;28;20024;-70
2023/03/22 16:15:21;;;;;;;2.47;1.67;;;;;;;24.04;29.25;102605.56;21081316;28;20089;-75
2023/03/22 16:25:24;;;;;;;2.72;1.70;;;;;;;23.91;30.23;102566.81;21082415;28;20036;-73
2023/03/22 16:35:27;;;;;;;6.05;1.80;;;;;;;23.97;30.50;102558.25;21082076;28;20090;-73
2023/03/22 16:45:33;;;;;;;2.58;1.60;;;;;;;23.94;30.50;102543.94;21081131;28;20394;-73
2023/03/22 16:55:37;;;;;;;3.15;1.58;;;;;;;24.04;30.74;102549.63;21041106;28;20397;-73
2023/03/22 17:05:42;;;;;;;3.03;1.75;;;;;;;24.05;30.63;102513.03;21079141;28;20043;-72
2023/03/22 17:15:48;;;;;;;2.47;1.55;;;;;;;24.02;30.59;102512.72;21078100;28;20058;-73
2023/03/22 17:25:51;;;;;;;3.05;1.63;;;;;;;23.81;30.91;102461.31;21078092;28;20058;-73
2023/03/22 17:35:52;;;;;;;2.92;1.52;;;;;;;23.40;30.51;102393.81;21076445;28;20032;-74
2023/03/22 17:45:54;;;;;;;4.47;1.73;;;;;;;24.11;30.60;102485.13;21075473;28;20073;-73
2023/03/22 17:55:55;;;;;;;2.30;1.67;;;;;;;24.12;30.86;102451.28;21075378;28;20391;-72
2023/03/22 18:05:56;;;;;;;2.63;1.65;;;;;;;24.12;30.45;102434.50;21029673;28;20044;-71
2023/03/22 18:15:58;;;;;;;2.22;1.52;;;;;;;23.72;30.59;102357.53;21037616;28;20032;-72
2023/03/22 18:26:02;;;;;;;3.03;1.63;;;;;;;24.08;30.66;102394.19;21056751;28;20040;-71
2023/03/22 18:36:04;;;;;;;7.35;1.98;;;;;;;24.12;30.76;102375.75;21064047;28;20036;-73
2023/03/22 18:46:10;;;;;;;2.70;1.50;;;;;;;24.12;30.21;102367.38;21040165;28;20048;-71
2023/03/22 18:56:11;;;;;;;1.88;1.30;;;;;;;24.06;30.26;102323.72;21002298;28;20037;-72
2023/03/22 19:06:15;;;;;;;3.60;1.55;;;;;;;23.83;30.35;102281.06;21002361;28;20044;-71
2023/03/22 19:16:20;;;;;;;2.83;1.30;;;;;;;23.89;30.62;102267.94;21001998;28;20045;-70
2023/03/22 19:26:22;;;;;;;5.20;1.40;;;;;;;24.07;30.42;102286.25;21001972;28;20049;-70
2023/03/22 19:36:24;;;;;;;3.33;1.90;;;;;;;24.03;30.57;102279.50;21009764;28;20048;-70
2023/03/22 19:46:29;;;;;;;5.57;1.75;;;;;;;24.02;30.83;102278.66;21083856;28;20044;-71
2023/03/22 19:56:30;;;;;;;11.82;1.85;;;;;;;24.03;31.27;102273.91;21084129;28;20464;-71
2023/03/22 20:06:32;;;;;;;2.13;1.40;;;;;;;24.01;31.31;102264.97;21081198;28;20093;-70
2023/03/22 20:16:35;;;;;;;1.95;1.40;;;;;;;24.01;31.16;102237.00;21079010;28;20476;-71
2023/03/22 20:26:37;;;;;;;2.05;1.38;;;;;;;23.97;30.94;102214.34;21082649;28;20035;-71
2023/03/22 20:36:39;;;;;;;2.28;1.30;;;;;;;23.99;31.13;102212.09;21081336;28;20036;-71
2023/03/22 20:46:43;;;;;;;2.95;1.45;;;;;;;24.00;31.17;102188.59;21073163;28;20040;-71
2023/03/22 20:56:45;;;;;;;3.28;1.67;;;;;;;23.99;32.28;102172.13;21078241;28;20383;-72
2023/03/22 21:06:47;;;;;;;8.75;2.58;;;;;;;24.07;33.75;102146.44;21079214;28;20047;-72
2023/03/22 21:16:49;;;;;;;9.50;2.55;;;;;;;23.59;33.52;102034.69;21067668;28;20066;-72
2023/03/22 21:26:50;;;;;;;4.63;1.90;;;;;;;24.02;33.08;102105.31;21076583;28;20089;-71
2023/03/22 21:36:52;;;;;;;6.05;1.85;;;;;;;24.00;33.09;102095.50;21075946;28;20503;-72
2023/03/22 21:46:57;;;;;;;13.95;2.50;;;;;;;24.01;32.80;102105.59;21072290;28;20104;-71
2023/03/22 21:56:59;;;;;;;8.32;2.25;;;;;;;24.08;32.69;102108.97;21066600;28;20052;-70
2023/03/22 22:07:00;;;;;;;11.10;2.28;;;;;;;24.14;32.80;102101.41;21072264;28;20036;-73
2023/03/22 22:17:03;;;;;;;6.03;2.15;;;;;;;24.06;32.55;102080.44;21074192;28;20044;-72
2023/03/22 22:27:05;;;;;;;12.65;2.08;;;;;;;24.18;32.50;102108.16;21072644;28;20495;-73
2023/03/22 22:37:09;;;;;;;6.32;1.98;;;;;;;23.83;32.03;102051.84;21073526;28;20040;-74
2023/03/22 22:47:10;;;;;;;11.95;2.25;;;;;;;24.13;32.04;102106.19;21070712;28;20122;-74
2023/03/22 22:57:12;;;;;;;10.18;2.00;;;;;;;24.12;32.32;102118.47;21073075;28;20040;-73
2023/03/22 23:07:13;;;;;;;7.60;2.00;;;;;;;23.95;32.06;102081.50;21078867;28;20399;-73
2023/03/22 23:17:18;;;;;;;7.57;2.00;;;;;;;23.99;32.24;102111.44;21087934;28;20477;-72
2023/03/22 23:27:19;;;;;;;8.65;1.70;;;;;;;24.03;32.10;102122.91;21088517;28;20044;-72
2023/03/22 23:37:31;;;;;;;5.18;1.50;;;;;;;24.01;32.29;102116.78;21088346;28;20532;-73
2023/03/22 23:47:36;;;;;;;4.35;2.10;;;;;;;24.03;32.20;102100.56;21069178;28;20377;-73
2023/03/22 23:57:39;;;;;;;4.65;2.20;;;;;;;23.90;32.78;102089.88;21068008;28;20036;-72
